Time;durP1;ratioP1;P1;durP2;ratioP2;P2;SDS_P1;SDS_P2;PMS_P1;PMS_P2;Temp;Humidity;BMP_temperature;BMP_pressure;BME280_temperature;BME280_humidity;BME280_pressure;Samples;Min_cycle;Max_cycle;Signal;HPM_P1;HPM_P2
2023/06/25 00:00:25;;;;;;;6.60;4.22;;;24.00;82.00;;;;;;10437864;28;20107;-66
2023/06/25 00:05:26;;;;;;;5.90;4.15;;;24.00;82.00;;;;;;10426062;28;20028;-66
2023/06/25 00:10:26;;;;;;;6.75;4.47;;;24.00;82.10;;;;;;10432483;28;20018;-66
2023/06/25 00:15:27;;;;;;;5.50;4.30;;;23.90;82.10;;;;;;10441396;28;20104;-66
2023/06/25 00:20:28;;;;;;;4.70;3.85;;;23.90;82.10;;;;;;10446188;28;20082;-66
2023/06/25 00:25:28;;;;;;;4.75;4.15;;;23.90;82.10;;;;;;10451010;28;20082;-66
2023/06/25 00:30:29;;;;;;;7.28;4.38;;;23.80;82.10;;;;;;10450485;28;20075;-66
2023/06/25 00:35:44;;;;;;;5.25;4.15;;;23.80;82.10;;;;;;10444846;28;20095;-66
2023/06/25 00:40:46;;;;;;;7.55;4.40;;;23.80;82.20;;;;;;10442972;28;20036;-66
2023/06/25 00:45:46;;;;;;;6.38;4.38;;;23.70;82.20;;;;;;10452424;28;20396;-67
2023/06/25 00:50:47;;;;;;;6.20;4.38;;;23.70;82.20;;;;;;10454477;28;20025;-66
2023/06/25 00:55:50;;;;;;;4.53;3.97;;;23.70;82.30;;;;;;10453526;28;20119;-67
2023/06/25 01:00:53;;;;;;;6.93;4.30;;;23.60;82.40;;;;;;10448207;28;20075;-66
2023/06/25 01:05:53;;;;;;;6.78;4.50;;;23.60;82.30;;;;;;10451075;28;20051;-66
2023/06/25 01:10:55;;;;;;;5.22;4.18;;;23.60;82.40;;;;;;10440970;28;20071;-66
2023/06/25 01:15:56;;;;;;;7.07;4.72;;;23.50;82.40;;;;;;10439212;28;20030;-65
2023/06/25 01:20:58;;;;;;;6.47;3.95;;;23.50;82.50;;;;;;10448050;28;20029;-66
2023/06/25 01:25:58;;;;;;;6.05;4.40;;;23.50;82.50;;;;;;10444133;28;20037;-66
2023/06/25 01:30:59;;;;;;;6.45;4.63;;;23.40;83.10;;;;;;10453163;28;20051;-66
2023/06/25 01:35:59;;;;;;;6.90;4.13;;;23.40;82.60;;;;;;10453792;28;20052;-66
2023/06/25 01:41:00;;;;;;;6.15;4.45;;;23.40;82.60;;;;;;10453585;28;20045;-66
2023/06/25 01:46:01;;;;;;;5.97;4.80;;;23.30;82.60;;;;;;10447659;28;20024;-66
2023/06/25 01:51:01;;;;;;;6.47;4.50;;;23.30;82.60;;;;;;10441146;28;20095;-66
2023/06/25 01:56:02;;;;;;;5.63;4.40;;;23.30;82.70;;;;;;10447154;28;20032;-66
2023/06/25 02:01:02;;;;;;;6.43;4.30;;;23.30;82.70;;;;;;10443742;28;20025;-66
2023/06/25 02:06:03;;;;;;;6.60;4.63;;;23.20;82.70;;;;;;10451788;28;20025;-66
2023/06/25 02:11:06;;;;;;;7.00;4.82;;;23.20;82.70;;;;;;10451274;28;20033;-66
2023/06/25 02:16:07;;;;;;;6.05;4.50;;;23.20;82.80;;;;;;10440370;28;20025;-66
2023/06/25 02:21:08;;;;;;;5.82;4.30;;;23.10;82.70;;;;;;10451755;28;20092;-66
2023/06/25 02:26:09;;;;;;;5.80;4.43;;;23.10;82.70;;;;;;10438654;28;20037;-65
2023/06/25 02:31:10;;;;;;;6.22;4.45;;;23.10;82.70;;;;;;10451538;28;20507;-67
2023/06/25 02:36:13;;;;;;;8.50;4.78;;;23.10;82.80;;;;;;10451513;28;20477;-66
2023/06/25 02:41:14;;;;;;;5.53;4.28;;;23.00;82.80;;;;;;10441481;28;20262;-66
2023/06/25 02:46:22;;;;;;;7.28;5.18;;;23.00;82.80;;;;;;10453792;28;20013;-66
2023/06/25 02:51:23;;;;;;;8.35;5.05;;;23.00;82.80;;;;;;10452520;28;20022;-66
2023/06/25 02:56:24;;;;;;;8.73;4.60;;;23.00;82.80;;;;;;10449498;28;20044;-66
2023/06/25 03:01:25;;;;;;;5.85;4.47;;;22.90;82.80;;;;;;10450188;28;20116;-66
2023/06/25 03:06:26;;;;;;;8.27;4.88;;;22.90;82.90;;;;;;10448582;28;20026;-66
2023/06/25 03:11:26;;;;;;;6.85;4.95;;;22.90;83.00;;;;;;10443558;28;20020;-66
2023/06/25 03:16:27;;;;;;;6.75;5.05;;;22.90;83.00;;;;;;10450378;28;20395;-66
2023/06/25 03:21:27;;;;;;;7.15;5.05;;;22.80;83.00;;;;;;10448805;28;20038;-66
2023/06/25 03:26:28;;;;;;;8.07;4.90;;;22.80;83.00;;;;;;10450036;28;20036;-66
2023/06/25 03:31:29;;;;;;;6.50;4.80;;;22.80;83.10;;;;;;10447237;28;20021;-65
2023/06/25 03:36:29;;;;;;;7.95;5.25;;;22.70;83.10;;;;;;10450431;28;20033;-66
2023/06/25 03:41:30;;;;;;;6.85;4.70;;;22.70;83.10;;;;;;10443340;28;20021;-66
2023/06/25 03:46:31;;;;;;;6.95;4.80;;;22.70;83.10;;;;;;10458179;28;20029;-65
2023/06/25 03:51:31;;;;;;;6.28;4.55;;;22.70;83.20;;;;;;10453747;28;20025;-67
2023/06/25 03:56:32;;;;;;;8.70;5.05;;;22.70;83.20;;;;;;10445310;28;20480;-66
2023/06/25 04:01:33;;;;;;;7.50;4.95;;;22.60;83.30;;;;;;10450180;28;20025;-66
2023/06/25 04:06:34;;;;;;;9.38;5.30;;;22.60;83.30;;;;;;10468812;28;20017;-66
2023/06/25 04:11:35;;;;;;;7.93;5.32;;;22.60;83.60;;;;;;10465030;28;20040;-66
2023/06/25 04:16:36;;;;;;;6.88;5.03;;;22.60;83.40;;;;;;10447997;28;20029;-65
2023/06/25 04:21:37;;;;;;;7.80;4.82;;;22.60;83.40;;;;;;10461406;28;20280;-66
2023/06/25 04:26:37;;;;;;;12.55;5.65;;;22.60;83.40;;;;;;10457116;28;20025;-65
2023/06/25 04:31:39;;;;;;;7.18;5.10;;;22.50;83.40;;;;;;10456629;28;20135;-66
2023/06/25 04:36:39;;;;;;;8.10;4.93;;;22.50;83.40;;;;;;10448342;28;20311;-65
2023/06/25 04:41:40;;;;;;;9.98;5.38;;;22.50;83.40;;;;;;10436387;28;20034;-65
2023/06/25 04:46:41;;;;;;;8.63;5.13;;;22.50;83.40;;;;;;10447440;28;20029;-65
2023/06/25 04:51:45;;;;;;;9.70;5.47;;;22.50;83.40;;;;;;10449776;28;20050;-66
2023/06/25 04:56:46;;;;;;;6.97;4.85;;;22.50;83.40;;;;;;10447718;28;20029;-65
2023/06/25 05:01:46;;;;;;;7.22;5.38;;;22.50;83.40;;;;;;10449837;28;20025;-66
2023/06/25 05:06:47;;;;;;;6.60;4.85;;;22.50;83.40;;;;;;10444398;28;20048;-66
2023/06/25 05:11:47;;;;;;;5.88;4.32;;;22.40;83.40;;;;;;10440702;28;20029;-66
2023/06/25 05:16:48;;;;;;;8.30;4.68;;;22.40;83.40;;;;;;10443682;28;20597;-66
2023/06/25 05:21:49;;;;;;;6.43;4.72;;;22.40;83.40;;;;;;10444331;28;20478;-66
2023/06/25 05:26:49;;;;;;;7.53;4.78;;;22.40;83.40;;;;;;10447523;28;20029;-66
2023/06/25 05:31:55;;;;;;;6.10;4.40;;;22.40;83.40;;;;;;10452812;28;20021;-66
2023/06/25 05:36:56;;;;;;;7.18;4.93;;;22.40;83.40;;;;;;10449811;28;20024;-66
2023/06/25 05:41:58;;;;;;;7.45;4.93;;;22.40;83.40;;;;;;10440809;28;20030;-66
2023/06/25 05:46:58;;;;;;;6.13;4.53;;;22.40;83.40;;;;;;10451021;28;20027;-66
2023/06/25 05:51:59;;;;;;;6.82;4.55;;;22.40;83.30;;;;;;10447016;28;20040;-66
2023/06/25 05:56:59;;;;;;;6.72;4.05;;;22.40;83.30;;;;;;10446306;28;20072;-65
2023/06/25 06:02:01;;;;;;;5.85;4.32;;;22.40;83.30;;;;;;10437685;28;20037;-66
2023/06/25 06:07:02;;;;;;;7.43;4.43;;;22.40;83.30;;;;;;10448908;28;20027;-66
2023/06/25 06:12:03;;;;;;;5.40;4.10;;;22.40;83.20;;;;;;10438626;28;20031;-67
2023/06/25 06:17:05;;;;;;;6.13;4.57;;;22.40;83.10;;;;;;10441868;28;20466;-66
2023/06/25 06:22:05;;;;;;;6.30;4.05;;;22.40;83.00;;;;;;10438271;28;20021;-66
2023/06/25 06:27:08;;;;;;;5.43;3.75;;;22.40;83.00;;;;;;10446266;28;20488;-66
2023/06/25 06:32:09;;;;;;;5.35;4.18;;;22.40;82.90;;;;;;10440325;28;20029;-66
2023/06/25 06:37:11;;;;;;;5.25;4.03;;;22.40;82.90;;;;;;10443463;28;20480;-66
2023/06/25 06:42:11;;;;;;;5.40;4.40;;;22.40;82.80;;;;;;10437358;28;20025;-66
2023/06/25 06:47:12;;;;;;;6.10;4.85;;;22.50;83.40;;;;;;10430809;28;20013;-66
2023/06/25 06:52:15;;;;;;;6.30;4.85;;;22.50;82.80;;;;;;10449712;28;20081;-66
2023/06/25 06:57:15;;;;;;;5.55;4.63;;;22.50;82.80;;;;;;10435357;28;20074;-66
2023/06/25 07:02:16;;;;;;;7.18;5.00;;;22.50;82.90;;;;;;10447104;28;20025;-66
2023/06/25 07:07:17;;;;;;;6.32;4.65;;;22.60;82.90;;;;;;10432231;28;20352;-67
2023/06/25 07:12:18;;;;;;;6.55;4.80;;;22.60;83.00;;;;;;10443968;28;20086;-68
2023/06/25 07:17:18;;;;;;;7.72;5.65;;;22.60;83.00;;;;;;10443125;28;20077;-67
2023/06/25 07:22:20;;;;;;;9.23;5.28;;;22.60;83.10;;;;;;10440297;28;20041;-67
2023/06/25 07:27:21;;;;;;;7.63;5.55;;;22.60;83.10;;;;;;10443087;28;20447;-67
2023/06/25 07:32:21;;;;;;;9.27;5.20;;;22.70;83.20;;;;;;10446219;28;20504;-67
2023/06/25 07:37:22;;;;;;;7.50;4.95;;;22.70;83.30;;;;;;10451077;28;20108;-68
2023/06/25 07:42:23;;;;;;;7.18;5.43;;;22.70;83.30;;;;;;10453470;28;20036;-68
2023/06/25 07:47:24;;;;;;;7.13;5.47;;;22.80;83.50;;;;;;10454006;28;20017;-68
2023/06/25 07:52:25;;;;;;;7.78;5.50;;;22.80;83.50;;;;;;10451635;28;20031;-69
2023/06/25 07:57:26;;;;;;;8.90;5.95;;;22.80;83.50;;;;;;10456179;28;20514;-69
2023/06/25 08:02:26;;;;;;;6.63;4.90;;;22.90;83.60;;;;;;10453540;28;20028;-69
2023/06/25 08:07:27;;;;;;;8.15;5.20;;;22.90;83.50;;;;;;10454474;28;20017;-68
2023/06/25 08:12:28;;;;;;;7.72;5.50;;;23.00;83.40;;;;;;10451488;28;20431;-69
2023/06/25 08:17:28;;;;;;;7.40;4.93;;;23.00;83.30;;;;;;10447239;28;20511;-69
2023/06/25 08:22:29;;;;;;;8.50;5.45;;;23.00;83.20;;;;;;10444449;28;20037;-67
2023/06/25 08:27:29;;;;;;;6.57;5.20;;;23.10;83.10;;;;;;10444387;28;20036;-67
2023/06/25 08:32:30;;;;;;;6.38;5.03;;;23.10;83.00;;;;;;10446763;28;20117;-68
2023/06/25 08:37:32;;;;;;;6.43;5.07;;;23.10;83.00;;;;;;10448259;28;20024;-67
2023/06/25 08:42:32;;;;;;;8.20;5.07;;;23.20;82.90;;;;;;10453697;28;20029;-68
2023/06/25 08:47:38;;;;;;;7.28;4.93;;;23.20;82.70;;;;;;10451897;28;20025;-68
2023/06/25 08:52:39;;;;;;;7.32;5.18;;;23.30;82.70;;;;;;10453869;28;20124;-67
2023/06/25 08:57:40;;;;;;;7.63;5.03;;;23.30;82.50;;;;;;10461337;28;20027;-68
2023/06/25 09:02:40;;;;;;;6.32;4.60;;;23.30;82.30;;;;;;10451370;28;20048;-68
2023/06/25 09:07:45;;;;;;;6.55;4.65;;;23.40;82.30;;;;;;10443248;28;20102;-67
2023/06/25 09:12:48;;;;;;;7.13;4.70;;;23.40;82.00;;;;;;10456912;28;20025;-66
2023/06/25 09:17:55;;;;;;;8.65;5.78;;;23.50;81.90;;;;;;10438658;28;20078;-67
2023/06/25 09:22:57;;;;;;;6.50;4.57;;;23.50;81.80;;;;;;10443925;28;20021;-67
2023/06/25 09:28:02;;;;;;;6.20;4.35;;;23.60;81.60;;;;;;10443036;28;20501;-66
2023/06/25 09:33:05;;;;;;;7.10;4.80;;;23.60;81.40;;;;;;10441555;28;20024;-66
2023/06/25 09:38:06;;;;;;;6.57;4.80;;;23.70;81.20;;;;;;10450358;28;20040;-67
2023/06/25 09:43:08;;;;;;;7.00;4.75;;;23.70;81.10;;;;;;10445203;28;20104;-67
2023/06/25 09:48:09;;;;;;;6.10;4.53;;;23.80;81.00;;;;;;10435821;28;20013;-67
2023/06/25 09:53:20;;;;;;;8.40;4.90;;;23.80;80.80;;;;;;10440226;28;20025;-67
2023/06/25 09:58:22;;;;;;;7.13;4.75;;;23.90;80.60;;;;;;10433596;28;20029;-67
2023/06/25 10:03:24;;;;;;;6.60;4.63;;;23.90;80.50;;;;;;10430437;28;20014;-67
2023/06/25 10:08:25;;;;;;;6.28;4.60;;;24.00;80.50;;;;;;10431950;28;20392;-67
2023/06/25 10:13:27;;;;;;;7.53;4.97;;;24.00;80.30;;;;;;10429455;28;20017;-68
2023/06/25 10:18:27;;;;;;;6.28;4.47;;;24.10;80.10;;;;;;10436459;28;20433;-68
2023/06/25 10:23:30;;;;;;;5.68;4.47;;;24.10;79.70;;;;;;10432963;28;20111;-66
2023/06/25 10:28:32;;;;;;;6.07;4.25;;;24.20;79.50;;;;;;10433036;28;20609;-67
2023/06/25 10:33:33;;;;;;;5.43;4.40;;;24.20;79.00;;;;;;10441466;28;20077;-67
2023/06/25 10:38:33;;;;;;;7.13;4.63;;;24.30;78.90;;;;;;10443098;28;20021;-68
2023/06/25 10:43:37;;;;;;;5.75;4.18;;;24.40;78.70;;;;;;10424497;28;20074;-67
2023/06/25 10:48:45;;;;;;;6.13;4.38;;;24.40;78.40;;;;;;10440939;28;20028;-67
2023/06/25 10:53:47;;;;;;;7.15;4.63;;;24.50;78.00;;;;;;10432045;28;20055;-67
2023/06/25 10:58:57;;;;;;;6.00;4.57;;;24.50;78.00;;;;;;10437322;28;20115;-68
2023/06/25 11:03:58;;;;;;;6.85;4.43;;;24.60;77.80;;;;;;10436918;28;20088;-69
2023/06/25 11:08:59;;;;;;;5.07;4.25;;;24.70;77.80;;;;;;10439702;28;20614;-68
2023/06/25 11:14:00;;;;;;;5.78;4.20;;;24.70;77.50;;;;;;10437456;28;20064;-66
2023/06/25 11:19:01;;;;;;;5.78;4.57;;;24.80;77.50;;;;;;10434693;28;20546;-66
2023/06/25 11:24:08;;;;;;;7.07;4.40;;;24.90;77.30;;;;;;10433703;28;20032;-67
2023/06/25 11:29:09;;;;;;;5.85;4.25;;;24.90;77.00;;;;;;10430977;28;20025;-68
2023/06/25 11:34:30;;;;;;;6.32;4.60;;;25.00;77.00;;;;;;10436406;28;20489;-69
2023/06/25 11:39:31;;;;;;;5.95;4.38;;;25.00;76.50;;;;;;10427610;28;20124;-67
2023/06/25 11:44:32;;;;;;;8.55;5.05;;;25.10;76.70;;;;;;10437235;28;20017;-67
2023/06/25 11:49:33;;;;;;;5.03;4.18;;;25.20;76.60;;;;;;10435895;28;20021;-68
2023/06/25 11:54:33;;;;;;;6.60;4.38;;;25.20;76.40;;;;;;10440765;28;20032;-68
2023/06/25 11:59:34;;;;;;;5.80;3.90;;;25.30;76.30;;;;;;10445617;28;20113;-68
2023/06/25 12:04:34;;;;;;;5.68;4.47;;;25.30;76.10;;;;;;10442732;28;20025;-68
2023/06/25 12:09:35;;;;;;;5.90;4.07;;;25.40;76.00;;;;;;10443463;28;20016;-67
2023/06/25 12:14:36;;;;;;;5.85;4.35;;;25.50;76.40;;;;;;10440686;28;20098;-68
2023/06/25 12:19:36;;;;;;;6.32;4.20;;;25.50;75.80;;;;;;10445451;28;20018;-67
2023/06/25 12:24:38;;;;;;;5.20;4.05;;;25.60;75.70;;;;;;10438639;28;20035;-68
2023/06/25 12:29:38;;;;;;;5.25;4.40;;;25.70;75.60;;;;;;10452006;28;20021;-67
2023/06/25 12:34:39;;;;;;;6.47;4.43;;;25.80;75.50;;;;;;10446883;28;20020;-68
2023/06/25 12:39:39;;;;;;;5.97;4.35;;;25.80;75.30;;;;;;10434810;28;20017;-67
2023/06/25 12:44:40;;;;;;;6.53;4.88;;;25.80;74.90;;;;;;10437470;28;20408;-68
2023/06/25 12:49:41;;;;;;;6.60;4.47;;;25.90;75.00;;;;;;10451466;28;20392;-68
2023/06/25 12:54:44;;;;;;;5.15;4.18;;;26.00;74.90;;;;;;10438870;28;20025;-67
2023/06/25 12:59:45;;;;;;;6.13;4.65;;;26.00;74.90;;;;;;10449537;28;20079;-66
2023/06/25 13:04:45;;;;;;;8.13;4.82;;;26.10;74.80;;;;;;10451156;28;20023;-66
2023/06/25 13:09:46;;;;;;;5.45;4.45;;;26.10;74.50;;;;;;10447669;28;20025;-66
2023/06/25 13:14:47;;;;;;;7.18;4.82;;;26.20;74.40;;;;;;10449993;28;20078;-67
2023/06/25 13:19:48;;;;;;;6.30;4.93;;;26.30;74.30;;;;;;10447833;28;20040;-66
2023/06/25 13:24:49;;;;;;;5.70;4.50;;;26.40;74.30;;;;;;10449024;28;20040;-65
2023/06/25 13:29:50;;;;;;;7.10;5.03;;;26.50;74.10;;;;;;10441670;28;20307;-66
2023/06/25 13:34:50;;;;;;;6.47;4.45;;;26.60;74.30;;;;;;10441217;28;20400;-66
2023/06/25 13:39:51;;;;;;;7.20;5.40;;;26.70;74.20;;;;;;10436587;28;20040;-66
2023/06/25 13:44:52;;;;;;;6.97;4.63;;;26.80;74.10;;;;;;10454089;28;20170;-66
2023/06/25 13:49:52;;;;;;;6.75;4.80;;;26.90;74.20;;;;;;10450359;28;20477;-66
2023/06/25 13:54:53;;;;;;;7.13;5.25;;;27.00;74.20;;;;;;10451980;28;20024;-66
2023/06/25 13:59:53;;;;;;;5.90;4.70;;;27.10;74.10;;;;;;10440275;28;20489;-65
2023/06/25 14:04:54;;;;;;;6.20;4.70;;;27.20;74.10;;;;;;10442094;28;20024;-66
2023/06/25 14:09:55;;;;;;;7.22;4.88;;;27.40;74.30;;;;;;10438197;28;20515;-65
2023/06/25 14:14:55;;;;;;;6.50;4.70;;;27.40;74.20;;;;;;10442544;28;20021;-65
2023/06/25 14:19:56;;;;;;;5.80;4.55;;;27.60;74.10;;;;;;10440732;28;20535;-66
2023/06/25 14:24:57;;;;;;;7.07;5.03;;;27.70;74.10;;;;;;10445860;28;20040;-66
2023/06/25 14:29:59;;;;;;;7.80;5.07;;;27.80;74.00;;;;;;10441034;28;20395;-65
2023/06/25 14:34:59;;;;;;;7.32;5.25;;;27.90;74.00;;;;;;10453549;28;20036;-66
2023/06/25 14:40:00;;;;;;;5.85;4.80;;;28.00;74.10;;;;;;10440355;28;20043;-65
2023/06/25 14:45:04;;;;;;;8.63;4.95;;;28.10;74.10;;;;;;10445042;28;20036;-65
2023/06/25 14:50:05;;;;;;;5.90;4.90;;;28.20;74.10;;;;;;10438456;28;20021;-65
2023/06/25 14:55:06;;;;;;;5.95;4.90;;;28.20;74.00;;;;;;10433121;28;20036;-66
2023/06/25 15:00:07;;;;;;;5.90;4.90;;;28.30;74.00;;;;;;10435227;28;20032;-66
2023/06/25 15:05:08;;;;;;;5.90;5.03;;;28.50;74.00;;;;;;10432982;28;20100;-64
2023/06/25 15:10:08;;;;;;;6.28;5.05;;;28.50;73.90;;;;;;10440150;28;20514;-65
2023/06/25 15:15:09;;;;;;;7.40;5.20;;;28.60;73.90;;;;;;10433704;28;20025;-64
2023/06/25 15:20:10;;;;;;;6.85;5.47;;;28.50;74.00;;;;;;10436286;28;20020;-64
2023/06/25 15:25:12;;;;;;;6.25;5.10;;;28.60;74.30;;;;;;10442592;28;20031;-65
2023/06/25 15:30:12;;;;;;;7.82;5.50;;;28.70;74.30;;;;;;10428376;28;20021;-65
2023/06/25 15:35:13;;;;;;;6.95;5.32;;;28.70;74.30;;;;;;10439023;28;20033;-66
2023/06/25 15:40:13;;;;;;;6.63;5.25;;;28.70;74.40;;;;;;10441105;28;20029;-66
2023/06/25 15:45:14;;;;;;;6.40;4.85;;;28.80;74.40;;;;;;10439969;28;20022;-66
2023/06/25 15:50:15;;;;;;;6.63;5.15;;;28.80;74.40;;;;;;10438164;28;20096;-65
2023/06/25 15:55:18;;;;;;;5.45;4.85;;;28.90;74.50;;;;;;10449221;28;20025;-66
2023/06/25 16:00:19;;;;;;;6.68;4.90;;;28.90;74.50;;;;;;10447750;28;20553;-66
2023/06/25 16:05:20;;;;;;;7.03;5.05;;;28.90;74.60;;;;;;10447656;28;20032;-67
2023/06/25 16:10:20;;;;;;;5.57;4.97;;;28.80;74.70;;;;;;10449007;28;20021;-65
2023/06/25 16:15:21;;;;;;;5.65;4.88;;;28.80;74.70;;;;;;10450064;28;20029;-66
2023/06/25 16:20:22;;;;;;;6.78;5.28;;;28.80;75.00;;;;;;10448087;28;20021;-65
2023/06/25 16:25:22;;;;;;;6.85;5.38;;;28.70;75.10;;;;;;10446505;28;20029;-66
2023/06/25 16:30:23;;;;;;;6.85;5.50;;;28.70;75.30;;;;;;10446763;28;20025;-64
2023/06/25 16:35:24;;;;;;;8.98;5.25;;;28.60;75.40;;;;;;10451721;28;20024;-66
2023/06/25 16:40:24;;;;;;;7.13;5.00;;;28.60;75.50;;;;;;10449426;28;20408;-67
2023/06/25 16:45:25;;;;;;;5.15;4.40;;;28.60;75.60;;;;;;10440663;28;20382;-66
2023/06/25 16:50:25;;;;;;;5.07;4.43;;;28.50;75.60;;;;;;10445598;28;20070;-66
2023/06/25 16:55:27;;;;;;;7.22;4.82;;;28.50;75.70;;;;;;10446838;28;20439;-66
2023/06/25 17:00:28;;;;;;;6.53;5.13;;;28.50;75.90;;;;;;10445874;28;20033;-66
2023/06/25 17:05:28;;;;;;;6.25;5.10;;;28.50;76.00;;;;;;10450179;28;20074;-66
2023/06/25 17:10:29;;;;;;;6.57;4.82;;;28.40;75.90;;;;;;10451408;28;20049;-65
2023/06/25 17:15:29;;;;;;;5.05;4.55;;;28.40;76.00;;;;;;10446081;28;20025;-66
2023/06/25 17:20:30;;;;;;;4.90;4.40;;;28.40;76.10;;;;;;10449992;28;20492;-67
2023/06/25 17:25:31;;;;;;;5.38;4.85;;;28.40;76.10;;;;;;10449114;28;20112;-64
2023/06/25 17:30:31;;;;;;;5.38;4.60;;;28.30;76.10;;;;;;10446116;28;20447;-66
2023/06/25 17:35:32;;;;;;;6.45;5.05;;;28.30;76.10;;;;;;10449815;28;20037;-65
2023/06/25 17:40:33;;;;;;;7.65;5.55;;;28.30;76.00;;;;;;10449729;28;20495;-67
2023/06/25 17:45:33;;;;;;;7.72;5.45;;;28.20;76.00;;;;;;10448658;28;20032;-65
2023/06/25 17:50:34;;;;;;;6.35;5.60;;;28.20;76.10;;;;;;10440436;28;20037;-64
2023/06/25 17:55:34;;;;;;;6.05;5.35;;;28.20;76.20;;;;;;10441371;28;20096;-65
2023/06/25 18:00:35;;;;;;;7.25;5.60;;;28.20;76.20;;;;;;10450071;28;20027;-65
2023/06/25 18:05:36;;;;;;;6.93;5.45;;;28.10;76.30;;;;;;10447985;28;20036;-64
2023/06/25 18:10:36;;;;;;;7.32;5.55;;;28.10;76.40;;;;;;10445671;28;20034;-66
2023/06/25 18:15:40;;;;;;;5.68;5.07;;;28.10;76.50;;;;;;10449020;28;20071;-66
2023/06/25 18:20:40;;;;;;;8.90;5.95;;;28.00;76.40;;;;;;10450237;28;20463;-65
2023/06/25 18:25:41;;;;;;;5.95;5.35;;;28.00;76.60;;;;;;10449284;28;20120;-70
2023/06/25 18:30:42;;;;;;;7.90;5.90;;;28.00;76.60;;;;;;10435090;28;20020;-66
2023/06/25 18:35:43;;;;;;;7.60;5.55;;;27.90;76.60;;;;;;10447060;28;20025;-66
2023/06/25 18:40:43;;;;;;;6.53;5.82;;;27.90;76.70;;;;;;10449919;28;20071;-67
2023/06/25 18:45:44;;;;;;;6.38;5.75;;;27.90;76.80;;;;;;10443788;28;20112;-66
2023/06/25 18:50:45;;;;;;;6.45;5.50;;;27.80;76.80;;;;;;10441181;28;20047;-66
2023/06/25 18:55:46;;;;;;;7.25;6.03;;;27.80;76.90;;;;;;10441763;28;20040;-66
2023/06/25 19:00:46;;;;;;;6.45;5.85;;;27.70;76.90;;;;;;10441166;28;20505;-67
2023/06/25 19:05:47;;;;;;;6.75;6.05;;;27.70;76.90;;;;;;10448326;28;20039;-66
2023/06/25 19:10:48;;;;;;;6.22;5.63;;;27.70;77.00;;;;;;10442639;28;20113;-68
2023/06/25 19:15:48;;;;;;;6.65;5.43;;;27.70;77.10;;;;;;10437881;28;20033;-67
2023/06/25 19:20:49;;;;;;;7.07;5.95;;;27.60;77.10;;;;;;10447136;28;20057;-66
2023/06/25 19:25:52;;;;;;;5.88;5.28;;;27.60;77.10;;;;;;10444448;28;20506;-67
2023/06/25 19:30:52;;;;;;;6.38;5.57;;;27.50;77.20;;;;;;10461683;28;20021;-67
2023/06/25 19:35:53;;;;;;;7.15;5.47;;;27.50;77.20;;;;;;10458574;28;20033;-66
2023/06/25 19:40:54;;;;;;;7.03;5.63;;;27.50;77.30;;;;;;10450399;28;20036;-67
2023/06/25 19:45:54;;;;;;;6.68;5.80;;;27.40;77.20;;;;;;10459245;28;20409;-67
2023/06/25 19:50:55;;;;;;;7.10;5.70;;;27.40;77.30;;;;;;10465906;28;20031;-67
2023/06/25 19:55:55;;;;;;;7.15;5.88;;;27.30;77.30;;;;;;10454965;28;20033;-66
2023/06/25 20:00:56;;;;;;;7.25;5.63;;;27.30;77.40;;;;;;10445818;28;20474;-67
2023/06/25 20:05:57;;;;;;;7.07;5.70;;;27.30;77.50;;;;;;10458513;28;20060;-67
2023/06/25 20:10:57;;;;;;;6.03;5.43;;;27.30;77.60;;;;;;10449424;28;20025;-66
2023/06/25 20:15:58;;;;;;;6.80;5.70;;;27.20;77.70;;;;;;10461560;28;20021;-66
2023/06/25 20:20:59;;;;;;;6.25;5.43;;;27.20;77.80;;;;;;10462018;28;20027;-66
2023/06/25 20:26:00;;;;;;;6.40;5.80;;;27.10;78.50;;;;;;10443013;28;20089;-68
2023/06/25 20:31:00;;;;;;;6.68;5.38;;;27.10;78.00;;;;;;10453772;28;20033;-65
2023/06/25 20:36:01;;;;;;;6.65;5.75;;;27.10;78.10;;;;;;10442416;28;20029;-66
2023/06/25 20:41:03;;;;;;;6.32;5.43;;;27.00;78.20;;;;;;10436894;28;20029;-67
2023/06/25 20:46:03;;;;;;;6.20;5.43;;;27.00;78.20;;;;;;10442332;28;20032;-66
2023/06/25 20:51:04;;;;;;;6.10;5.40;;;26.90;78.30;;;;;;10436957;28;20323;-66
2023/06/25 20:56:05;;;;;;;6.20;5.35;;;26.90;78.30;;;;;;10440731;28;20031;-66
2023/06/25 21:01:05;;;;;;;8.23;5.90;;;26.80;78.30;;;;;;10440035;28;20025;-67
2023/06/25 21:06:06;;;;;;;7.10;5.65;;;26.80;78.40;;;;;;10443294;28;20037;-67
2023/06/25 21:11:06;;;;;;;7.82;5.55;;;26.80;78.40;;;;;;10445411;28;20033;-67
2023/06/25 21:16:07;;;;;;;6.75;5.68;;;26.80;78.60;;;;;;10450435;28;20033;-66
2023/06/25 21:21:08;;;;;;;6.63;5.35;;;26.70;78.50;;;;;;10441741;28;20052;-66
2023/06/25 21:26:08;;;;;;;6.30;5.47;;;26.60;78.50;;;;;;10447921;28;20512;-67
2023/06/25 21:31:09;;;;;;;7.43;5.43;;;26.60;78.60;;;;;;10438517;28;20117;-66
2023/06/25 21:36:09;;;;;;;7.53;6.25;;;26.60;78.60;;;;;;10434466;28;20025;-68
2023/06/25 21:41:10;;;;;;;6.00;5.38;;;26.50;78.60;;;;;;10441096;28;20025;-68
2023/06/25 21:46:11;;;;;;;8.13;5.55;;;26.50;78.70;;;;;;10449607;28;20032;-68
2023/06/25 21:51:11;;;;;;;6.57;5.68;;;26.50;78.70;;;;;;10451819;28;20025;-68
2023/06/25 21:56:12;;;;;;;7.75;6.10;;;26.50;78.80;;;;;;10441390;28;20488;-68
2023/06/25 22:01:13;;;;;;;7.28;5.60;;;26.40;78.80;;;;;;10443828;28;20017;-68
2023/06/25 22:06:13;;;;;;;6.60;5.68;;;26.40;78.80;;;;;;10437557;28;20085;-68
2023/06/25 22:11:14;;;;;;;6.20;5.60;;;26.40;78.90;;;;;;10443193;28;20106;-68
2023/06/25 22:16:15;;;;;;;7.20;5.95;;;26.30;78.80;;;;;;10444114;28;20079;-68
2023/06/25 22:21:15;;;;;;;6.60;5.53;;;26.30;78.90;;;;;;10443816;28;20040;-68
2023/06/25 22:26:16;;;;;;;6.03;5.50;;;26.20;78.90;;;;;;10443646;28;20044;-68
2023/06/25 22:31:17;;;;;;;6.95;6.25;;;26.20;78.90;;;;;;10440791;28;20436;-68
2023/06/25 22:36:18;;;;;;;6.43;5.70;;;26.20;78.90;;;;;;10438313;28;20071;-68
2023/06/25 22:41:18;;;;;;;6.82;5.50;;;26.20;79.00;;;;;;10448583;28;20048;-68
2023/06/25 22:46:19;;;;;;;7.78;5.70;;;26.20;79.00;;;;;;10438300;28;20500;-68
2023/06/25 22:51:20;;;;;;;6.80;5.93;;;26.10;79.00;;;;;;10447281;28;20029;-68
2023/06/25 22:56:20;;;;;;;6.38;5.75;;;26.10;79.00;;;;;;10440502;28;20021;-68
2023/06/25 23:01:21;;;;;;;6.72;6.03;;;26.00;79.00;;;;;;10434589;28;20029;-67
2023/06/25 23:06:22;;;;;;;6.32;5.57;;;26.00;79.00;;;;;;10433312;28;20275;-67
2023/06/25 23:11:22;;;;;;;7.30;6.07;;;26.00;79.10;;;;;;10446788;28;20017;-67
2023/06/25 23:16:24;;;;;;;7.30;5.78;;;25.90;79.00;;;;;;10444317;28;20028;-67
2023/06/25 23:21:25;;;;;;;6.53;5.82;;;25.90;79.10;;;;;;10457262;28;20465;-67
2023/06/25 23:26:26;;;;;;;6.45;5.43;;;25.90;79.10;;;;;;10453478;28;20035;-67
2023/06/25 23:31:27;;;;;;;7.15;5.90;;;25.80;79.00;;;;;;10450171;28;20045;-67
2023/06/25 23:36:28;;;;;;;7.47;6.47;;;25.80;79.00;;;;;;10450895;28;20029;-67
2023/06/25 23:41:29;;;;;;;6.47;5.50;;;25.80;79.10;;;;;;10450701;28;20029;-67
2023/06/25 23:46:29;;;;;;;6.70;5.70;;;25.80;79.10;;;;;;10443949;28;20569;-67
2023/06/25 23:51:30;;;;;;;6.45;5.85;;;25.70;79.10;;;;;;10461452;28;20035;-67
2023/06/25 23:56:33;;;;;;;6.78;5.85;;;25.70;79.10;;;;;;10449214;28;20469;-67
